Time;durP1;ratioP1;P1;durP2;ratioP2;P2;SDS_P1;SDS_P2;PMS_P1;PMS_P2;Temp;Humidity;BMP_temperature;BMP_pressure;BME280_temperature;BME280_humidity;BME280_pressure;Samples;Min_cycle;Max_cycle;Signal;HPM_P1;HPM_P2
2022/05/24 00:00:55;;;;;;;4.05;3.58;;;;;;;;;;5015458;28;20024;-77
2022/05/24 00:03:20;;;;;;;4.60;3.33;;;;;;;;;;5036313;28;20081;-79
2022/05/24 00:05:47;;;;;;;6.82;3.30;;;;;;;;;;5036599;28;20101;-78
2022/05/24 00:08:12;;;;;;;4.72;3.38;;;;;;;;;;5032073;28;20303;-80
2022/05/24 00:10:38;;;;;;;4.40;3.35;;;;;;;;;;5034684;28;20056;-80
2022/05/24 00:13:03;;;;;;;4.53;3.50;;;;;;;;;;5037568;28;20392;-78
2022/05/24 00:15:31;;;;;;;6.00;3.22;;;;;;;;;;5035253;28;20108;-79
2022/05/24 00:18:00;;;;;;;4.72;3.30;;;;;;;;;;5035311;28;20032;-79
2022/05/24 00:20:32;;;;;;;4.60;3.20;;;;;;;;;;5035478;28;20033;-78
2022/05/24 00:22:58;;;;;;;;;;;;;;;;;;5022075;28;20034;-79
2022/05/24 00:25:24;;;;;;;3.97;3.30;;;;;;;;;;5022955;28;19917;-79
2022/05/24 00:27:49;;;;;;;5.00;3.38;;;;;;;;;;5036886;28;20125;-80
2022/05/24 00:30:16;;;;;;;5.82;3.50;;;;;;;;;;5034531;28;20033;-78
2022/05/24 00:32:42;;;;;;;5.53;4.00;;;;;;;;;;5030579;28;20021;-78
2022/05/24 00:35:08;;;;;;;4.25;3.17;;;;;;;;;;5026936;28;20391;-79
2022/05/24 00:37:37;;;;;;;6.35;3.83;;;;;;;;;;5030119;28;20083;-79
2022/05/24 00:40:02;;;;;;;3.70;2.83;;;;;;;;;;5001437;28;20026;-78
2022/05/24 00:42:31;;;;;;;5.35;3.25;;;;;;;;;;5018315;28;20030;-78
2022/05/24 00:45:05;;;;;;;4.82;3.10;;;;;;;;;;5018259;28;20033;-79
2022/05/24 00:47:41;;;;;;;5.32;3.80;;;;;;;;;;5037276;28;20040;-80
2022/05/24 00:50:23;;;;;;;4.45;3.45;;;;;;;;;;5030214;28;20034;-80
2022/05/24 00:52:56;;;;;;;4.65;3.70;;;;;;;;;;4999949;28;20416;-79
2022/05/24 00:55:23;;;;;;;5.72;3.40;;;;;;;;;;5016172;28;20068;-79
2022/05/24 00:58:02;;;;;;;5.20;3.83;;;;;;;;;;5015480;28;20582;-78
2022/05/24 01:00:28;;;;;;;4.93;3.70;;;;;;;;;;5027079;28;20038;-80
2022/05/24 01:02:53;;;;;;;5.97;3.10;;;;;;;;;;5031603;28;20502;-78
2022/05/24 01:05:25;;;;;;;6.53;3.75;;;;;;;;;;5004258;28;20398;-79
2022/05/24 01:07:51;;;;;;;;;;;;;;;;;;4997412;28;20034;-79
2022/05/24 01:10:28;;;;;;;5.70;3.67;;;;;;;;;;4992104;28;19924;-80
2022/05/24 01:12:59;;;;;;;4.30;3.45;;;;;;;;;;4994986;28;20041;-79
2022/05/24 01:15:25;;;;;;;5.25;3.45;;;;;;;;;;5014261;28;20029;-78
2022/05/24 01:17:53;;;;;;;5.05;3.60;;;;;;;;;;5034501;28;20035;-79
2022/05/24 01:20:19;;;;;;;4.00;3.50;;;;;;;;;;5035299;28;20028;-80
2022/05/24 01:23:17;;;;;;;6.15;3.40;;;;;;;;;;5025078;28;20083;-79
2022/05/24 01:25:57;;;;;;;5.45;3.55;;;;;;;;;;5031211;28;20091;-79
2022/05/24 01:28:40;;;;;;;7.40;3.83;;;;;;;;;;5034627;28;20033;-80
2022/05/24 01:31:06;;;;;;;4.47;3.65;;;;;;;;;;5020651;28;20029;-79
2022/05/24 01:36:19;;;;;;;4.30;3.30;;;;;;;;;;5014687;28;20056;-79
2022/05/24 01:38:52;;;;;;;5.15;3.55;;;;;;;;;;5031841;28;20442;-79
2022/05/24 01:41:20;;;;;;;5.60;4.40;;;;;;;;;;5034071;28;20022;-79
2022/05/24 01:43:49;;;;;;;5.30;3.90;;;;;;;;;;5033635;28;20026;-79
2022/05/24 01:46:18;;;;;;;5.78;3.90;;;;;;;;;;5035645;28;20112;-79
2022/05/24 01:48:50;;;;;;;6.82;4.28;;;;;;;;;;5033880;28;20033;-78
2022/05/24 01:51:18;;;;;;;4.90;4.30;;;;;;;;;;5011673;28;20536;-78
2022/05/24 01:53:47;;;;;;;5.32;3.97;;;;;;;;;;5007016;28;20058;-80
2022/05/24 01:56:18;;;;;;;4.30;3.67;;;;;;;;;;5017626;28;20472;-79
2022/05/24 01:58:51;;;;;;;5.13;4.22;;;;;;;;;;5008608;28;20073;-80
2022/05/24 02:01:24;;;;;;;7.65;3.97;;;;;;;;;;4995958;28;20033;-79
2022/05/24 02:03:50;;;;;;;5.32;4.22;;;;;;;;;;4996745;28;20496;-79
2022/05/24 02:06:22;;;;;;;4.30;3.90;;;;;;;;;;4996628;28;20026;-79
2022/05/24 02:08:47;;;;;;;5.50;4.13;;;;;;;;;;4993421;28;20034;-80
2022/05/24 02:11:14;;;;;;;6.55;4.35;;;;;;;;;;5027391;28;20328;-79
2022/05/24 02:13:43;;;;;;;6.88;4.65;;;;;;;;;;5030645;28;20037;-79
2022/05/24 02:16:12;;;;;;;6.28;4.47;;;;;;;;;;5035477;28;20021;-79
2022/05/24 02:18:40;;;;;;;5.60;4.80;;;;;;;;;;5033814;28;20114;-79
2022/05/24 02:21:06;;;;;;;7.00;4.93;;;;;;;;;;5035171;28;20025;-79
2022/05/24 02:23:49;;;;;;;5.85;4.97;;;;;;;;;;5004769;28;20034;-79
2022/05/24 02:26:16;;;;;;;5.60;4.63;;;;;;;;;;5003515;28;20030;-79
2022/05/24 02:28:42;;;;;;;5.80;4.88;;;;;;;;;;5009746;28;20488;-77
2022/05/24 02:33:35;;;;;;;8.25;5.43;;;;;;;;;;5050609;28;20040;-71
2022/05/24 02:36:01;;;;;;;7.53;5.20;;;;;;;;;;5051764;28;20025;-71
2022/05/24 02:38:27;;;;;;;6.82;4.80;;;;;;;;;;5049634;28;20040;-72
2022/05/24 02:43:38;;;;;;;8.30;5.43;;;;;;;;;;5031213;28;20079;-70
2022/05/24 02:46:03;;;;;;;8.02;5.30;;;;;;;;;;5026605;28;20040;-72
2022/05/24 02:48:29;;;;;;;7.50;5.65;;;;;;;;;;5031419;28;20033;-72
2022/05/24 02:50:54;;;;;;;6.88;4.97;;;;;;;;;;5030849;28;20064;-72
2022/05/24 02:53:20;;;;;;;7.65;5.50;;;;;;;;;;5031438;28;20037;-73
2022/05/24 02:55:45;;;;;;;7.18;5.28;;;;;;;;;;5031233;28;20037;-73
2022/05/24 02:58:11;;;;;;;7.47;5.78;;;;;;;;;;5030839;28;20036;-73
2022/05/24 03:00:36;;;;;;;7.78;5.80;;;;;;;;;;5030817;28;20130;-72
2022/05/24 03:03:02;;;;;;;10.23;6.13;;;;;;;;;;5029907;28;20029;-72
2022/05/24 03:05:28;;;;;;;7.00;5.70;;;;;;;;;;5031532;28;20075;-72
2022/05/24 03:10:38;;;;;;;8.70;6.00;;;;;;;;;;5031378;28;20446;-71
2022/05/24 03:15:48;;;;;;;8.88;5.72;;;;;;;;;;5030856;28;20032;-72
2022/05/24 03:18:17;;;;;;;8.85;5.93;;;;;;;;;;5024727;28;20030;-74
2022/05/24 03:20:43;;;;;;;9.35;6.05;;;;;;;;;;5028870;28;20037;-75
2022/05/24 03:23:08;;;;;;;7.72;5.70;;;;;;;;;;5031251;28;20165;-75
2022/05/24 03:25:34;;;;;;;9.25;6.45;;;;;;;;;;5031210;28;20030;-78
2022/05/24 03:28:01;;;;;;;9.07;6.50;;;;;;;;;;5030859;28;20026;-73
2022/05/24 03:30:27;;;;;;;7.97;5.60;;;;;;;;;;5031133;28;20032;-72
2022/05/24 03:32:53;;;;;;;8.20;4.97;;;;;;;;;;5030038;28;20055;-73
2022/05/24 03:35:19;;;;;;;7.18;5.88;;;;;;;;;;5029468;28;20018;-70
2022/05/24 03:37:44;;;;;;;11.23;6.65;;;;;;;;;;5028542;28;20037;-73
2022/05/24 03:40:10;;;;;;;11.13;7.95;;;;;;;;;;5029995;28;20170;-72
2022/05/24 03:42:36;;;;;;;11.20;6.93;;;;;;;;;;5030533;28;20048;-73
2022/05/24 03:45:03;;;;;;;13.80;8.68;;;;;;;;;;5030330;28;20061;-73
2022/05/24 03:47:28;;;;;;;13.20;6.53;;;;;;;;;;5031017;28;20523;-72
2022/05/24 03:49:53;;;;;;;7.28;5.35;;;;;;;;;;5029038;28;20040;-73
2022/05/24 03:52:19;;;;;;;9.23;5.22;;;;;;;;;;5030755;28;20076;-73
2022/05/24 03:54:44;;;;;;;6.22;4.00;;;;;;;;;;5030780;28;20071;-72
2022/05/24 03:59:53;;;;;;;4.97;3.47;;;;;;;;;;5029321;28;20446;-72
2022/05/24 04:02:18;;;;;;;4.90;3.33;;;;;;;;;;5030191;28;20013;-73
2022/05/24 04:04:44;;;;;;;4.22;3.17;;;;;;;;;;5030507;28;20017;-75
2022/05/24 04:07:09;;;;;;;3.22;2.58;;;;;;;;;;5030297;28;20045;-74
2022/05/24 04:09:35;;;;;;;4.65;2.10;;;;;;;;;;5029490;28;20061;-76
2022/05/24 04:12:01;;;;;;;3.53;2.03;;;;;;;;;;5030127;28;20033;-72
2022/05/24 04:14:32;;;;;;;2.28;1.48;;;;;;;;;;5030081;28;20029;-74
2022/05/24 04:16:57;;;;;;;1.50;1.27;;;;;;;;;;5029465;28;20033;-72
2022/05/24 04:19:22;;;;;;;3.15;1.05;;;;;;;;;;5030008;28;20032;-74
2022/05/24 04:21:48;;;;;;;1.77;1.20;;;;;;;;;;5029986;28;20316;-73
2022/05/24 04:24:13;;;;;;;1.83;1.10;;;;;;;;;;5029630;28;20032;-75
2022/05/24 04:26:39;;;;;;;2.53;1.10;;;;;;;;;;5029843;28;20025;-70
2022/05/24 04:29:04;;;;;;;1.67;1.20;;;;;;;;;;5028675;28;20167;-72
2022/05/24 04:31:30;;;;;;;1.58;1.00;;;;;;;;;;5029546;28;20367;-71
2022/05/24 04:33:55;;;;;;;3.35;0.98;;;;;;;;;;5029923;28;20037;-73
2022/05/24 04:36:21;;;;;;;1.60;0.80;;;;;;;;;;5029118;28;20033;-71
2022/05/24 04:38:46;;;;;;;1.70;0.93;;;;;;;;;;5029316;28;20033;-70
2022/05/24 04:43:57;;;;;;;2.40;1.50;;;;;;;;;;5028286;28;20104;-71
2022/05/24 04:46:23;;;;;;;1.75;1.33;;;;;;;;;;5029741;28;20170;-71
2022/05/24 04:48:48;;;;;;;5.30;2.17;;;;;;;;;;5029504;28;20533;-71
2022/05/24 04:51:13;;;;;;;1.80;1.17;;;;;;;;;;5028062;28;20048;-71
2022/05/24 04:53:39;;;;;;;3.15;1.25;;;;;;;;;;5029337;28;20136;-70
2022/05/24 04:56:04;;;;;;;2.28;1.17;;;;;;;;;;5029344;28;20033;-71
2022/05/24 04:58:30;;;;;;;3.20;1.50;;;;;;;;;;5028678;28;20049;-72
2022/05/24 05:00:55;;;;;;;3.88;1.63;;;;;;;;;;5027762;28;20026;-71
2022/05/24 05:03:21;;;;;;;3.38;1.40;;;;;;;;;;5029006;28;20021;-71
2022/05/24 05:05:47;;;;;;;2.28;1.52;;;;;;;;;;5028528;28;20032;-71
2022/05/24 05:08:13;;;;;;;4.88;1.48;;;;;;;;;;5028729;28;20104;-71
2022/05/24 05:10:39;;;;;;;2.58;2.17;;;;;;;;;;5025082;28;20440;-71
2022/05/24 05:13:05;;;;;;;1.88;1.40;;;;;;;;;;5025774;28;20033;-72
2022/05/24 05:15:34;;;;;;;4.35;1.27;;;;;;;;;;5027719;28;20067;-71
2022/05/24 05:18:08;;;;;;;2.50;1.42;;;;;;;;;;5028489;28;20030;-72
2022/05/24 05:20:39;;;;;;;3.70;1.33;;;;;;;;;;5028242;28;20040;-70
2022/05/24 05:23:06;;;;;;;2.05;1.20;;;;;;;;;;5027746;28;20036;-70
2022/05/24 05:25:32;;;;;;;1.15;0.80;;;;;;;;;;5028739;28;20151;-70
2022/05/24 05:27:57;;;;;;;1.13;0.90;;;;;;;;;;5028258;28;20112;-71
2022/05/24 05:33:07;;;;;;;0.95;0.80;;;;;;;;;;5025330;28;20032;-71
2022/05/24 05:35:32;;;;;;;1.10;1.00;;;;;;;;;;5028357;28;20030;-70
2022/05/24 05:37:57;;;;;;;2.13;1.20;;;;;;;;;;5026963;28;20067;-74
2022/05/24 05:40:23;;;;;;;2.67;1.00;;;;;;;;;;5019688;28;20025;-77
2022/05/24 05:42:48;;;;;;;1.90;0.80;;;;;;;;;;5028382;28;20082;-72
2022/05/24 05:45:15;;;;;;;1.10;1.00;;;;;;;;;;5025988;28;20021;-70
2022/05/24 05:47:40;;;;;;;4.00;1.30;;;;;;;;;;5027413;28;20044;-70
2022/05/24 05:50:07;;;;;;;4.68;2.50;;;;;;;;;;5027385;28;20025;-71
2022/05/24 05:52:32;;;;;;;2.47;1.25;;;;;;;;;;5026948;28;20398;-70
2022/05/24 05:54:57;;;;;;;3.63;1.15;;;;;;;;;;5025583;28;20300;-71
2022/05/24 05:57:23;;;;;;;1.23;0.82;;;;;;;;;;5017493;28;20040;-73
2022/05/24 05:59:48;;;;;;;3.22;1.00;;;;;;;;;;5024744;28;20048;-71
2022/05/24 06:02:13;;;;;;;2.38;1.00;;;;;;;;;;5023157;28;20021;-71
2022/05/24 06:04:39;;;;;;;1.88;0.70;;;;;;;;;;5025131;28;20175;-70
2022/05/24 06:07:05;;;;;;;1.13;0.75;;;;;;;;;;5026248;28;20471;-71
2022/05/24 06:09:30;;;;;;;0.90;0.80;;;;;;;;;;5027826;28;20044;-71
2022/05/24 06:11:56;;;;;;;1.45;0.90;;;;;;;;;;5021911;28;20500;-69
2022/05/24 06:14:21;;;;;;;1.85;0.90;;;;;;;;;;5019798;28;20030;-72
2022/05/24 06:16:46;;;;;;;1.85;0.82;;;;;;;;;;5023159;28;20509;-71
2022/05/24 06:19:12;;;;;;;2.15;0.85;;;;;;;;;;5022808;28;20025;-76
2022/05/24 06:21:37;;;;;;;0.90;0.70;;;;;;;;;;5022819;28;20025;-72
2022/05/24 06:24:06;;;;;;;1.00;0.90;;;;;;;;;;5023227;28;20091;-73
2022/05/24 06:26:33;;;;;;;0.75;0.75;;;;;;;;;;5022259;28;20387;-73
2022/05/24 06:28:59;;;;;;;1.40;0.70;;;;;;;;;;5023661;28;20029;-73
2022/05/24 06:31:25;;;;;;;1.00;0.75;;;;;;;;;;5023583;28;20044;-73
2022/05/24 06:33:50;;;;;;;1.02;0.90;;;;;;;;;;5023940;28;20037;-74
2022/05/24 06:36:16;;;;;;;1.88;0.70;;;;;;;;;;5020656;28;20112;-76
2022/05/24 06:38:41;;;;;;;0.90;0.60;;;;;;;;;;5020817;28;20281;-72
2022/05/24 06:41:06;;;;;;;1.10;0.70;;;;;;;;;;5016829;28;20025;-72
2022/05/24 06:43:33;;;;;;;4.60;1.00;;;;;;;;;;5019680;28;20037;-74
2022/05/24 06:45:59;;;;;;;1.95;0.98;;;;;;;;;;5012727;28;20029;-71
2022/05/24 06:48:24;;;;;;;4.15;1.40;;;;;;;;;;5020506;28;20026;-75
2022/05/24 06:50:50;;;;;;;7.15;4.07;;;;;;;;;;5015531;28;20404;-75
2022/05/24 06:53:15;;;;;;;5.47;2.80;;;;;;;;;;5023252;28;20065;-74
2022/05/24 06:55:40;;;;;;;7.25;3.22;;;;;;;;;;5022499;28;20037;-75
2022/05/24 06:58:06;;;;;;;4.63;1.70;;;;;;;;;;5015845;28;20083;-74
2022/05/24 07:03:16;;;;;;;12.88;5.72;;;;;;;;;;5016846;28;20036;-76
2022/05/24 07:05:43;;;;;;;14.80;6.13;;;;;;;;;;5019389;28;20577;-73
2022/05/24 07:08:10;;;;;;;26.13;10.38;;;;;;;;;;5020376;28;20029;-74
2022/05/24 07:10:37;;;;;;;7.10;3.38;;;;;;;;;;5020623;28;20026;-72
2022/05/24 07:13:12;;;;;;;10.98;4.45;;;;;;;;;;5023799;28;20045;-74
2022/05/24 07:15:38;;;;;;;46.35;19.30;;;;;;;;;;5024575;28;20070;-72
2022/05/24 07:18:04;;;;;;;4.82;2.03;;;;;;;;;;5024251;28;20032;-72
2022/05/24 07:20:33;;;;;;;8.00;3.90;;;;;;;;;;5017469;28;20036;-71
2022/05/24 07:23:14;;;;;;;9.18;4.40;;;;;;;;;;5019514;28;20026;-72
2022/05/24 07:25:41;;;;;;;1.65;1.20;;;;;;;;;;5026871;28;20067;-72
2022/05/24 07:28:07;;;;;;;1.92;1.08;;;;;;;;;;5021914;28;20292;-72
2022/05/24 07:30:33;;;;;;;3.22;1.05;;;;;;;;;;5022546;28;20037;-72
2022/05/24 07:32:58;;;;;;;2.17;1.10;;;;;;;;;;5015171;28;20116;-74
2022/05/24 07:35:24;;;;;;;1.17;0.93;;;;;;;;;;5027182;28;20022;-74
2022/05/24 07:37:49;;;;;;;1.23;0.80;;;;;;;;;;5023402;28;20087;-74
2022/05/24 07:45:49;;;;;;;3.08;1.10;;;;;;;;;;5022260;28;20033;-74
2022/05/24 07:48:16;;;;;;;1.83;0.90;;;;;;;;;;5021892;28;20025;-74
2022/05/24 07:50:42;;;;;;;5.13;1.10;;;;;;;;;;5024093;28;20057;-74
2022/05/24 07:53:08;;;;;;;2.22;1.15;;;;;;;;;;5035497;28;20107;-74
2022/05/24 07:55:34;;;;;;;1.75;1.05;;;;;;;;;;5020726;28;20067;-73
2022/05/24 07:57:59;;;;;;;2.55;1.50;;;;;;;;;;5023404;28;20563;-74
2022/05/24 08:00:25;;;;;;;3.42;1.50;;;;;;;;;;5022579;28;20065;-77
2022/05/24 08:02:51;;;;;;;1.38;1.00;;;;;;;;;;5021938;28;20037;-72
2022/05/24 08:05:19;;;;;;;1.75;1.10;;;;;;;;;;5022566;28;20022;-75
2022/05/24 08:07:49;;;;;;;2.42;1.10;;;;;;;;;;5023478;28;20029;-76
2022/05/24 08:10:15;;;;;;;6.05;1.50;;;;;;;;;;5022764;28;20450;-73
2022/05/24 08:12:40;;;;;;;1.92;1.13;;;;;;;;;;5021818;28;20242;-74
2022/05/24 08:15:08;;;;;;;3.17;1.17;;;;;;;;;;5022331;28;20472;-71
2022/05/24 08:17:34;;;;;;;3.47;1.20;;;;;;;;;;5022044;28;20087;-72
2022/05/24 08:20:00;;;;;;;1.67;1.10;;;;;;;;;;5020370;28;20148;-74
2022/05/24 08:22:25;;;;;;;2.65;1.52;;;;;;;;;;5019665;28;20060;-73
2022/05/24 08:24:50;;;;;;;1.23;1.08;;;;;;;;;;5020486;28;20075;-75
2022/05/24 08:27:16;;;;;;;2.50;1.35;;;;;;;;;;5021615;28;20033;-71
2022/05/24 08:29:42;;;;;;;1.33;1.23;;;;;;;;;;5019933;28;20064;-71
2022/05/24 08:32:08;;;;;;;4.78;1.20;;;;;;;;;;5028307;22;20419;-73
2022/05/24 08:34:33;;;;;;;2.47;1.38;;;;;;;;;;4986946;28;20026;-77
2022/05/24 08:37:00;;;;;;;4.88;1.30;;;;;;;;;;4984542;28;20383;-76
2022/05/24 08:39:25;;;;;;;1.67;1.10;;;;;;;;;;4971453;28;20231;-80
2022/05/24 08:42:04;;;;;;;3.03;1.42;;;;;;;;;;4970724;28;20102;-82
2022/05/24 08:50:11;;;;;;;2.25;1.10;;;;;;;;;;4980491;28;20073;-75
2022/05/24 08:52:41;;;;;;;3.10;1.20;;;;;;;;;;4982158;28;20121;-75
2022/05/24 08:55:10;;;;;;;3.50;1.33;;;;;;;;;;4969133;28;20134;-71
2022/05/24 08:57:47;;;;;;;2.83;1.00;;;;;;;;;;4974592;28;20041;-72
2022/05/24 09:00:18;;;;;;;2.13;1.00;;;;;;;;;;4977362;28;20373;-74
2022/05/24 09:02:46;;;;;;;1.67;1.00;;;;;;;;;;4981188;28;20033;-73
2022/05/24 09:05:30;;;;;;;4.85;1.25;;;;;;;;;;4981126;28;20083;-74
2022/05/24 09:08:23;;;;;;;1.98;1.00;;;;;;;;;;4979865;28;20080;-78
2022/05/24 09:11:06;;;;;;;2.30;1.10;;;;;;;;;;4981232;28;20245;-73
2022/05/24 09:13:59;;;;;;;1.48;1.15;;;;;;;;;;4983140;28;20041;-74
2022/05/24 09:16:32;;;;;;;;;;;;;;;;;;4982171;28;20492;-73
2022/05/24 09:19:16;;;;;;;1.92;0.90;;;;;;;;;;4972666;28;19948;-75
2022/05/24 09:21:43;;;;;;;1.85;0.82;;;;;;;;;;4980928;28;20026;-75
2022/05/24 09:24:20;;;;;;;2.88;1.00;;;;;;;;;;4984423;28;20083;-72
2022/05/24 09:27:07;;;;;;;3.03;0.98;;;;;;;;;;4976991;28;20121;-72
2022/05/24 09:29:35;;;;;;;2.40;1.05;;;;;;;;;;4985955;28;20550;-74
2022/05/24 09:32:07;;;;;;;2.75;0.95;;;;;;;;;;4978106;28;20030;-77
2022/05/24 09:34:35;;;;;;;0.88;0.85;;;;;;;;;;4981585;28;20084;-73
2022/05/24 09:37:06;;;;;;;1.73;0.98;;;;;;;;;;4984581;28;20026;-74
2022/05/24 09:39:42;;;;;;;4.97;0.90;;;;;;;;;;4988968;28;20034;-73
2022/05/24 09:42:27;;;;;;;4.78;1.30;;;;;;;;;;4983367;28;20541;-73
2022/05/24 09:45:01;;;;;;;3.72;1.10;;;;;;;;;;4983520;28;20026;-74
2022/05/24 09:47:34;;;;;;;1.88;0.85;;;;;;;;;;4984754;28;20108;-76
2022/05/24 09:50:18;;;;;;;1.77;0.82;;;;;;;;;;4985485;28;20038;-72
2022/05/24 09:53:03;;;;;;;1.23;0.70;;;;;;;;;;4983077;28;20034;-76
2022/05/24 09:55:37;;;;;;;1.50;0.95;;;;;;;;;;4979653;28;20034;-75
2022/05/24 09:58:35;;;;;;;1.60;0.70;;;;;;;;;;4982738;28;20034;-74
2022/05/24 10:01:04;;;;;;;2.35;0.80;;;;;;;;;;4980327;28;20038;-72
2022/05/24 10:03:31;;;;;;;1.08;0.70;;;;;;;;;;4982109;28;20026;-77
2022/05/24 10:06:20;;;;;;;2.95;0.73;;;;;;;;;;4977378;28;20493;-75
2022/05/24 10:09:20;;;;;;;2.25;0.93;;;;;;;;;;4980364;28;20038;-73
2022/05/24 10:11:59;;;;;;;1.30;0.60;;;;;;;;;;4979661;28;20026;-76
2022/05/24 10:14:33;;;;;;;2.28;0.98;;;;;;;;;;4987642;28;20042;-74
2022/05/24 10:17:49;;;;;;;1.75;0.80;;;;;;;;;;4987746;28;21333;-76
2022/05/24 10:20:15;;;;;;;1.38;0.70;;;;;;;;;;4976939;28;20121;-77
2022/05/24 10:22:48;;;;;;;2.20;0.80;;;;;;;;;;4979992;28;20515;-74
2022/05/24 10:25:26;;;;;;;2.85;0.98;;;;;;;;;;4988390;28;20015;-78
2022/05/24 10:28:24;;;;;;;1.17;0.60;;;;;;;;;;4986101;28;20054;-73
2022/05/24 10:30:52;;;;;;;1.33;0.60;;;;;;;;;;4982592;28;20049;-75
2022/05/24 10:39:43;;;;;;;1.15;0.77;;;;;;;;;;4981810;28;20399;-78
2022/05/24 10:42:45;;;;;;;3.03;0.90;;;;;;;;;;4977003;28;20608;-73
2022/05/24 10:45:20;;;;;;;5.78;0.73;;;;;;;;;;4987458;28;20041;-74
2022/05/24 10:47:55;;;;;;;1.58;0.95;;;;;;;;;;4990664;28;20876;-73
2022/05/24 10:50:34;;;;;;;3.17;1.00;;;;;;;;;;4991852;28;20117;-76
2022/05/24 10:53:04;;;;;;;2.50;0.73;;;;;;;;;;4984555;28;20061;-76
2022/05/24 10:55:36;;;;;;;2.50;0.75;;;;;;;;;;4990233;28;20038;-76
2022/05/24 10:58:09;;;;;;;1.98;0.60;;;;;;;;;;4986895;28;20936;-77
2022/05/24 11:00:56;;;;;;;1.88;0.70;;;;;;;;;;4985392;28;20077;-75
2022/05/24 11:03:27;;;;;;;1.05;0.70;;;;;;;;;;4985856;28;20053;-76
2022/05/24 11:06:01;;;;;;;1.67;0.60;;;;;;;;;;4992089;28;20026;-77
2022/05/24 11:08:53;;;;;;;2.50;0.60;;;;;;;;;;4987278;28;20134;-73
2022/05/24 11:11:29;;;;;;;4.00;0.60;;;;;;;;;;4982240;28;20042;-72
2022/05/24 11:14:18;;;;;;;0.75;0.60;;;;;;;;;;4990863;28;20031;-76
2022/05/24 11:16:49;;;;;;;2.35;0.60;;;;;;;;;;4989605;28;20444;-76
2022/05/24 11:19:26;;;;;;;3.40;0.70;;;;;;;;;;4986858;28;20042;-79
2022/05/24 11:21:52;;;;;;;4.60;1.00;;;;;;;;;;4983368;28;20038;-73
2022/05/24 11:24:28;;;;;;;1.20;0.73;;;;;;;;;;4982480;28;20030;-72
2022/05/24 11:26:57;;;;;;;1.83;0.60;;;;;;;;;;4983978;28;20018;-74
2022/05/24 11:29:45;;;;;;;2.08;0.65;;;;;;;;;;4990591;28;20034;-74
2022/05/24 11:32:11;;;;;;;1.63;0.70;;;;;;;;;;4988413;28;20874;-77
2022/05/24 11:34:53;;;;;;;1.50;0.65;;;;;;;;;;4988682;28;20034;-75
2022/05/24 11:37:22;;;;;;;1.00;0.68;;;;;;;;;;4989105;28;20109;-77
2022/05/24 11:39:48;;;;;;;1.17;0.77;;;;;;;;;;4991024;28;20034;-74
2022/05/24 11:42:45;;;;;;;3.60;1.08;;;;;;;;;;4988562;28;20022;-77
2022/05/24 11:45:29;;;;;;;1.20;0.70;;;;;;;;;;4980448;28;20089;-75
2022/05/24 11:47:54;;;;;;;2.63;0.85;;;;;;;;;;4990145;28;20125;-77
2022/05/24 11:50:50;;;;;;;2.45;0.85;;;;;;;;;;4985028;28;20448;-74
2022/05/24 11:53:15;;;;;;;3.55;0.90;;;;;;;;;;4986846;28;20038;-77
2022/05/24 11:56:09;;;;;;;2.35;1.02;;;;;;;;;;4988285;28;20076;-76
2022/05/24 11:58:35;;;;;;;2.33;0.65;;;;;;;;;;4989384;28;20577;-77
2022/05/24 12:01:30;;;;;;;3.80;0.90;;;;;;;;;;4994056;28;20045;-75
2022/05/24 12:10:04;;;;;;;2.05;0.90;;;;;;;;;;4980762;28;20044;-76
2022/05/24 12:13:06;;;;;;;4.60;1.00;;;;;;;;;;4981680;28;20042;-76
2022/05/24 12:15:34;;;;;;;1.60;0.70;;;;;;;;;;4968450;28;20084;-76
2022/05/24 12:17:59;;;;;;;4.97;0.90;;;;;;;;;;4987847;28;20030;-72
2022/05/24 12:20:47;;;;;;;1.90;0.70;;;;;;;;;;4986296;28;20088;-76
2022/05/24 12:23:32;;;;;;;2.53;0.90;;;;;;;;;;4983505;28;20363;-73
2022/05/24 12:26:01;;;;;;;2.25;0.75;;;;;;;;;;4984683;28;20106;-72
2022/05/24 12:28:35;;;;;;;1.58;0.60;;;;;;;;;;4987292;28;20072;-77
2022/05/24 12:31:07;;;;;;;2.70;0.80;;;;;;;;;;4986551;28;20506;-72
2022/05/24 12:33:38;;;;;;;3.28;0.90;;;;;;;;;;4987337;28;20058;-77
2022/05/24 12:36:06;;;;;;;1.58;0.70;;;;;;;;;;4989082;28;20034;-76
2022/05/24 12:38:33;;;;;;;1.63;1.00;;;;;;;;;;4988476;28;20546;-75
2022/05/24 12:41:17;;;;;;;1.02;0.80;;;;;;;;;;4985962;28;20026;-74
2022/05/24 12:44:01;;;;;;;2.50;0.90;;;;;;;;;;4981602;28;20444;-74
2022/05/24 12:46:30;;;;;;;2.50;0.60;;;;;;;;;;4980785;28;20113;-71
2022/05/24 12:49:00;;;;;;;3.20;1.00;;;;;;;;;;4981278;28;20034;-74
2022/05/24 12:51:25;;;;;;;6.18;1.08;;;;;;;;;;4984803;28;20026;-77
2022/05/24 12:53:50;;;;;;;2.45;0.98;;;;;;;;;;4982008;28;20045;-77
2022/05/24 12:56:22;;;;;;;1.70;0.80;;;;;;;;;;4989105;28;20026;-75
2022/05/24 12:58:52;;;;;;;2.40;0.82;;;;;;;;;;4988117;28;20105;-75
2022/05/24 13:01:24;;;;;;;2.10;0.82;;;;;;;;;;4982068;28;20037;-76
2022/05/24 13:04:04;;;;;;;3.05;0.95;;;;;;;;;;4981404;28;20040;-74
2022/05/24 13:06:33;;;;;;;2.53;0.60;;;;;;;;;;4981868;28;20030;-76
2022/05/24 13:09:24;;;;;;;1.83;0.95;;;;;;;;;;4988177;28;20125;-78
2022/05/24 13:12:01;;;;;;;1.15;0.80;;;;;;;;;;4988806;28;20073;-76
2022/05/24 13:14:45;;;;;;;2.55;0.75;;;;;;;;;;4985545;28;20068;-76
2022/05/24 13:17:13;;;;;;;3.13;0.80;;;;;;;;;;4984282;28;20135;-74
2022/05/24 13:19:55;;;;;;;2.03;1.10;;;;;;;;;;4987073;28;20504;-74
2022/05/24 13:22:23;;;;;;;4.35;1.17;;;;;;;;;;4983338;28;20026;-74
2022/05/24 13:24:57;;;;;;;2.92;0.90;;;;;;;;;;4980383;28;20063;-75
2022/05/24 13:27:23;;;;;;;1.88;0.73;;;;;;;;;;4970791;28;20460;-75
2022/05/24 13:35:27;;;;;;;2.25;0.70;;;;;;;;;;4984250;28;20050;-81
2022/05/24 13:37:56;;;;;;;1.83;0.88;;;;;;;;;;4977507;28;20496;-75
2022/05/24 13:40:54;;;;;;;1.42;0.70;;;;;;;;;;4980105;28;20488;-75
2022/05/24 13:43:38;;;;;;;1.88;0.68;;;;;;;;;;4978783;28;20034;-75
2022/05/24 13:46:21;;;;;;;1.85;0.68;;;;;;;;;;4983033;28;20499;-75
2022/05/24 13:48:55;;;;;;;0.85;0.82;;;;;;;;;;4986712;28;20034;-75
2022/05/24 13:51:27;;;;;;;1.33;0.43;;;;;;;;;;4987941;28;20117;-77
2022/05/24 13:53:53;;;;;;;1.98;0.65;;;;;;;;;;4979882;28;20426;-76
2022/05/24 13:56:28;;;;;;;2.63;0.60;;;;;;;;;;4987882;28;20069;-75
2022/05/24 13:59:20;;;;;;;1.92;0.60;;;;;;;;;;4988149;28;20050;-74
2022/05/24 14:01:49;;;;;;;2.38;0.70;;;;;;;;;;4983615;28;20296;-74
2022/05/24 14:04:19;;;;;;;1.42;0.90;;;;;;;;;;4978645;28;20018;-75
2022/05/24 14:07:11;;;;;;;1.23;0.50;;;;;;;;;;4986873;28;20083;-75
2022/05/24 14:09:37;;;;;;;2.05;0.70;;;;;;;;;;4967153;28;20050;-74
2022/05/24 14:12:05;;;;;;;2.40;0.52;;;;;;;;;;4985415;28;20153;-74
2022/05/24 14:14:32;;;;;;;0.70;0.60;;;;;;;;;;4987845;28;20482;-75
2022/05/24 14:16:58;;;;;;;1.27;0.50;;;;;;;;;;4984938;28;20068;-73
2022/05/24 14:19:24;;;;;;;0.73;0.50;;;;;;;;;;4987370;28;20484;-75
2022/05/24 14:21:54;;;;;;;1.30;0.50;;;;;;;;;;4977923;28;20039;-72
2022/05/24 14:24:23;;;;;;;1.45;0.70;;;;;;;;;;4991825;28;20169;-73
2022/05/24 14:26:53;;;;;;;1.08;0.60;;;;;;;;;;4989979;28;20519;-73
2022/05/24 14:29:19;;;;;;;0.60;0.57;;;;;;;;;;4990778;28;20031;-73
2022/05/24 14:31:45;;;;;;;1.35;0.70;;;;;;;;;;4983415;28;20030;-72
2022/05/24 14:34:12;;;;;;;0.47;0.40;;;;;;;;;;4991852;28;20026;-73
2022/05/24 14:36:38;;;;;;;2.03;0.52;;;;;;;;;;4991063;28;20089;-74
2022/05/24 14:39:05;;;;;;;1.45;0.65;;;;;;;;;;4986461;28;20117;-73
2022/05/24 14:41:31;;;;;;;1.20;0.60;;;;;;;;;;4988575;28;20148;-77
2022/05/24 14:44:09;;;;;;;2.47;0.80;;;;;;;;;;4989280;28;20526;-76
2022/05/24 14:46:37;;;;;;;0.88;0.50;;;;;;;;;;4982653;28;20080;-72
2022/05/24 14:49:04;;;;;;;1.60;0.70;;;;;;;;;;4979406;28;20403;-76
2022/05/24 14:51:32;;;;;;;2.55;0.70;;;;;;;;;;4989859;28;20097;-76
2022/05/24 14:54:00;;;;;;;1.60;0.50;;;;;;;;;;4980926;28;20065;-72
2022/05/24 14:56:25;;;;;;;0.93;0.60;;;;;;;;;;4979932;28;20034;-78
2022/05/24 14:58:51;;;;;;;1.08;0.60;;;;;;;;;;4983131;28;20038;-77
2022/05/24 15:01:16;;;;;;;0.82;0.73;;;;;;;;;;4984203;28;20510;-74
2022/05/24 15:03:42;;;;;;;2.58;0.68;;;;;;;;;;4986430;28;20364;-77
2022/05/24 15:06:07;;;;;;;1.20;0.85;;;;;;;;;;4985818;28;20026;-74
2022/05/24 15:16:49;;;;;;;1.13;0.60;;;;;;;;;;4980773;28;20037;-76
2022/05/24 15:19:18;;;;;;;1.98;0.60;;;;;;;;;;4979998;28;20184;-74
2022/05/24 15:21:47;;;;;;;0.43;0.43;;;;;;;;;;4980892;28;20566;-75
2022/05/24 15:24:22;;;;;;;0.70;0.60;;;;;;;;;;4981255;28;20026;-75
2022/05/24 15:26:56;;;;;;;2.50;0.60;;;;;;;;;;4980096;28;20029;-76
2022/05/24 15:29:22;;;;;;;1.83;0.60;;;;;;;;;;4979245;28;20034;-73
2022/05/24 15:31:48;;;;;;;0.98;0.80;;;;;;;;;;4977813;28;20026;-74
2022/05/24 15:34:14;;;;;;;1.92;0.60;;;;;;;;;;4986243;28;20579;-78
2022/05/24 15:36:40;;;;;;;0.40;0.40;;;;;;;;;;4980699;28;20496;-74
2022/05/24 15:39:06;;;;;;;1.55;0.50;;;;;;;;;;4982427;28;20037;-74
2022/05/24 15:41:32;;;;;;;3.13;0.60;;;;;;;;;;4981810;28;20035;-74
2022/05/24 15:43:59;;;;;;;3.03;0.70;;;;;;;;;;4980654;28;20504;-76
2022/05/24 15:46:26;;;;;;;2.17;0.63;;;;;;;;;;4988557;28;20080;-75
2022/05/24 15:48:53;;;;;;;0.88;0.63;;;;;;;;;;4971842;28;20532;-74
2022/05/24 15:51:19;;;;;;;0.90;0.60;;;;;;;;;;4982295;28;20198;-73
2022/05/24 15:53:45;;;;;;;1.45;0.68;;;;;;;;;;4985782;28;20519;-74
2022/05/24 15:56:10;;;;;;;1.35;0.57;;;;;;;;;;4987305;28;20029;-77
2022/05/24 15:58:37;;;;;;;3.90;0.75;;;;;;;;;;4980889;28;20497;-72
2022/05/24 16:01:05;;;;;;;3.30;0.80;;;;;;;;;;4995371;28;20049;-74
2022/05/24 16:03:32;;;;;;;1.00;0.60;;;;;;;;;;4984270;28;20045;-74